sensor_id;sensor_type;location;lat;lon;timestamp;P1;durP1;ratioP1;P2;durP2;ratioP2
54899;SDS011;40801;41.924;25.562;2024-03-29T00:01:07;32.03;;;11.00;;
54899;SDS011;40801;41.924;25.562;2024-03-29T00:03:32;29.25;;;11.77;;
54899;SDS011;40801;41.924;25.562;2024-03-29T00:05:57;27.23;;;10.93;;
54899;SDS011;40801;41.924;25.562;2024-03-29T00:08:23;30.00;;;12.10;;
54899;SDS011;40801;41.924;25.562;2024-03-29T00:10:48;37.35;;;11.60;;
54899;SDS011;40801;41.924;25.562;2024-03-29T00:13:14;29.95;;;9.73;;
54899;SDS011;40801;41.924;25.562;2024-03-29T00:15:39;35.97;;;11.68;;
54899;SDS011;40801;41.924;25.562;2024-03-29T00:18:04;37.83;;;11.85;;
54899;SDS011;40801;41.924;25.562;2024-03-29T00:20:30;23.98;;;10.35;;
54899;SDS011;40801;41.924;25.562;2024-03-29T00:22:55;27.65;;;10.65;;
54899;SDS011;40801;41.924;25.562;2024-03-29T00:25:21;34.58;;;10.65;;
54899;SDS011;40801;41.924;25.562;2024-03-29T00:27:46;25.63;;;11.50;;
54899;SDS011;40801;41.924;25.562;2024-03-29T00:30:13;29.67;;;10.45;;
54899;SDS011;40801;41.924;25.562;2024-03-29T00:32:39;29.10;;;11.88;;
54899;SDS011;40801;41.924;25.562;2024-03-29T00:35:04;34.97;;;11.02;;
54899;SDS011;40801;41.924;25.562;2024-03-29T00:37:30;25.65;;;10.88;;
54899;SDS011;40801;41.924;25.562;2024-03-29T00:39:55;26.10;;;10.77;;
54899;SDS011;40801;41.924;25.562;2024-03-29T00:42:20;26.60;;;9.73;;
54899;SDS011;40801;41.924;25.562;2024-03-29T00:44:46;29.60;;;10.02;;
54899;SDS011;40801;41.924;25.562;2024-03-29T00:47:12;31.05;;;11.18;;
54899;SDS011;40801;41.924;25.562;2024-03-29T00:49:38;26.95;;;11.23;;
54899;SDS011;40801;41.924;25.562;2024-03-29T00:52:04;34.70;;;11.65;;
54899;SDS011;40801;41.924;25.562;2024-03-29T00:54:30;27.52;;;9.02;;
54899;SDS011;40801;41.924;25.562;2024-03-29T00:56:56;26.05;;;10.40;;
54899;SDS011;40801;41.924;25.562;2024-03-29T00:59:21;26.25;;;9.90;;
54899;SDS011;40801;41.924;25.562;2024-03-29T01:01:47;25.48;;;9.63;;
54899;SDS011;40801;41.924;25.562;2024-03-29T01:04:13;26.60;;;9.07;;
54899;SDS011;40801;41.924;25.562;2024-03-29T01:06:38;28.10;;;10.23;;
54899;SDS011;40801;41.924;25.562;2024-03-29T01:09:05;26.45;;;11.15;;
54899;SDS011;40801;41.924;25.562;2024-03-29T01:11:31;26.58;;;10.32;;
54899;SDS011;40801;41.924;25.562;2024-03-29T01:13:57;24.05;;;9.88;;
54899;SDS011;40801;41.924;25.562;2024-03-29T01:16:23;26.45;;;10.10;;
54899;SDS011;40801;41.924;25.562;2024-03-29T01:18:48;31.27;;;10.05;;
54899;SDS011;40801;41.924;25.562;2024-03-29T01:21:14;26.95;;;11.30;;
54899;SDS011;40801;41.924;25.562;2024-03-29T01:23:40;26.60;;;10.45;;
54899;SDS011;40801;41.924;25.562;2024-03-29T01:26:06;23.38;;;10.43;;
54899;SDS011;40801;41.924;25.562;2024-03-29T01:28:32;32.55;;;11.15;;
54899;SDS011;40801;41.924;25.562;2024-03-29T01:30:57;25.85;;;9.95;;
54899;SDS011;40801;41.924;25.562;2024-03-29T01:33:25;26.90;;;10.40;;
54899;SDS011;40801;41.924;25.562;2024-03-29T01:35:51;25.80;;;9.23;;
54899;SDS011;40801;41.924;25.562;2024-03-29T01:38:17;29.73;;;10.63;;
54899;SDS011;40801;41.924;25.562;2024-03-29T01:40:43;24.60;;;8.80;;
54899;SDS011;40801;41.924;25.562;2024-03-29T01:43:08;22.40;;;9.93;;
54899;SDS011;40801;41.924;25.562;2024-03-29T01:45:43;30.17;;;11.32;;
54899;SDS011;40801;41.924;25.562;2024-03-29T01:48:12;27.65;;;9.27;;
54899;SDS011;40801;41.924;25.562;2024-03-29T01:50:38;27.40;;;9.95;;
54899;SDS011;40801;41.924;25.562;2024-03-29T01:53:04;23.75;;;9.35;;
54899;SDS011;40801;41.924;25.562;2024-03-29T01:55:32;22.23;;;8.50;;
54899;SDS011;40801;41.924;25.562;2024-03-29T01:57:58;23.63;;;9.20;;
54899;SDS011;40801;41.924;25.562;2024-03-29T02:00:24;24.92;;;10.13;;
54899;SDS011;40801;41.924;25.562;2024-03-29T02:02:50;25.40;;;10.35;;
54899;SDS011;40801;41.924;25.562;2024-03-29T02:05:16;23.55;;;9.32;;
54899;SDS011;40801;41.924;25.562;2024-03-29T02:07:41;25.52;;;9.80;;
54899;SDS011;40801;41.924;25.562;2024-03-29T02:10:10;26.52;;;9.55;;
54899;SDS011;40801;41.924;25.562;2024-03-29T02:12:38;22.58;;;9.40;;
54899;SDS011;40801;41.924;25.562;2024-03-29T02:15:04;21.77;;;8.90;;
54899;SDS011;40801;41.924;25.562;2024-03-29T02:17:30;24.95;;;9.98;;
54899;SDS011;40801;41.924;25.562;2024-03-29T02:19:56;23.35;;;10.95;;
54899;SDS011;40801;41.924;25.562;2024-03-29T02:22:22;22.52;;;10.38;;
54899;SDS011;40801;41.924;25.562;2024-03-29T02:24:49;25.15;;;9.95;;
54899;SDS011;40801;41.924;25.562;2024-03-29T02:27:16;26.50;;;10.75;;
54899;SDS011;40801;41.924;25.562;2024-03-29T02:29:42;22.98;;;10.05;;
54899;SDS011;40801;41.924;25.562;2024-03-29T02:32:07;23.13;;;10.52;;
54899;SDS011;40801;41.924;25.562;2024-03-29T02:34:32;30.45;;;11.00;;
54899;SDS011;40801;41.924;25.562;2024-03-29T02:36:58;27.02;;;10.75;;
54899;SDS011;40801;41.924;25.562;2024-03-29T02:39:24;25.55;;;9.27;;
54899;SDS011;40801;41.924;25.562;2024-03-29T02:41:50;22.17;;;10.00;;
54899;SDS011;40801;41.924;25.562;2024-03-29T02:44:16;22.10;;;9.63;;
54899;SDS011;40801;41.924;25.562;2024-03-29T02:46:41;31.35;;;11.23;;
54899;SDS011;40801;41.924;25.562;2024-03-29T02:49:07;24.83;;;10.35;;
54899;SDS011;40801;41.924;25.562;2024-03-29T02:51:34;25.13;;;9.60;;
54899;SDS011;40801;41.924;25.562;2024-03-29T02:53:59;26.23;;;9.60;;
54899;SDS011;40801;41.924;25.562;2024-03-29T02:56:25;30.15;;;11.90;;
54899;SDS011;40801;41.924;25.562;2024-03-29T02:58:52;27.45;;;11.10;;
54899;SDS011;40801;41.924;25.562;2024-03-29T03:01:17;21.42;;;8.88;;
54899;SDS011;40801;41.924;25.562;2024-03-29T03:03:43;21.75;;;9.80;;
54899;SDS011;40801;41.924;25.562;2024-03-29T03:06:08;22.17;;;9.07;;
54899;SDS011;40801;41.924;25.562;2024-03-29T03:08:34;22.50;;;8.57;;
54899;SDS011;40801;41.924;25.562;2024-03-29T03:11:17;22.77;;;9.00;;
54899;SDS011;40801;41.924;25.562;2024-03-29T03:13:43;20.08;;;8.35;;
54899;SDS011;40801;41.924;25.562;2024-03-29T03:16:08;19.27;;;8.82;;
54899;SDS011;40801;41.924;25.562;2024-03-29T03:18:33;22.23;;;9.43;;
54899;SDS011;40801;41.924;25.562;2024-03-29T03:20:59;18.20;;;8.57;;
54899;SDS011;40801;41.924;25.562;2024-03-29T03:23:25;19.23;;;7.82;;
54899;SDS011;40801;41.924;25.562;2024-03-29T03:28:21;22.27;;;8.52;;
54899;SDS011;40801;41.924;25.562;2024-03-29T03:30:50;23.83;;;9.25;;
54899;SDS011;40801;41.924;25.562;2024-03-29T03:33:16;15.10;;;8.63;;
54899;SDS011;40801;41.924;25.562;2024-03-29T03:35:42;23.55;;;9.93;;
54899;SDS011;40801;41.924;25.562;2024-03-29T03:38:08;22.48;;;8.90;;
54899;SDS011;40801;41.924;25.562;2024-03-29T03:40:34;22.75;;;9.52;;
54899;SDS011;40801;41.924;25.562;2024-03-29T03:43:00;19.33;;;9.48;;
54899;SDS011;40801;41.924;25.562;2024-03-29T03:45:27;20.75;;;8.55;;
54899;SDS011;40801;41.924;25.562;2024-03-29T03:47:52;22.98;;;10.27;;
54899;SDS011;40801;41.924;25.562;2024-03-29T03:50:17;21.33;;;8.95;;
54899;SDS011;40801;41.924;25.562;2024-03-29T03:52:43;24.75;;;11.48;;
54899;SDS011;40801;41.924;25.562;2024-03-29T03:55:08;20.02;;;10.57;;
54899;SDS011;40801;41.924;25.562;2024-03-29T03:57:33;23.08;;;9.60;;
54899;SDS011;40801;41.924;25.562;2024-03-29T03:59:59;19.75;;;9.00;;
54899;SDS011;40801;41.924;25.562;2024-03-29T04:02:25;15.93;;;9.60;;
54899;SDS011;40801;41.924;25.562;2024-03-29T04:04:51;22.65;;;9.93;;
54899;SDS011;40801;41.924;25.562;2024-03-29T04:07:16;27.42;;;9.60;;
54899;SDS011;40801;41.924;25.562;2024-03-29T04:09:41;20.08;;;10.18;;
54899;SDS011;40801;41.924;25.562;2024-03-29T04:12:07;18.85;;;8.30;;
54899;SDS011;40801;41.924;25.562;2024-03-29T04:14:32;15.60;;;9.05;;
54899;SDS011;40801;41.924;25.562;2024-03-29T04:16:58;21.45;;;9.05;;
54899;SDS011;40801;41.924;25.562;2024-03-29T04:19:23;22.90;;;9.38;;
54899;SDS011;40801;41.924;25.562;2024-03-29T04:21:48;21.38;;;8.98;;
54899;SDS011;40801;41.924;25.562;2024-03-29T04:24:14;20.70;;;8.98;;
54899;SDS011;40801;41.924;25.562;2024-03-29T04:26:39;15.43;;;8.90;;
54899;SDS011;40801;41.924;25.562;2024-03-29T04:29:05;19.30;;;8.63;;
54899;SDS011;40801;41.924;25.562;2024-03-29T04:31:30;21.25;;;8.80;;
54899;SDS011;40801;41.924;25.562;2024-03-29T04:33:56;23.33;;;8.15;;
54899;SDS011;40801;41.924;25.562;2024-03-29T04:36:21;22.77;;;10.05;;
54899;SDS011;40801;41.924;25.562;2024-03-29T04:38:47;20.48;;;9.10;;
54899;SDS011;40801;41.924;25.562;2024-03-29T04:41:12;15.40;;;9.93;;
54899;SDS011;40801;41.924;25.562;2024-03-29T04:43:39;21.08;;;9.68;;
54899;SDS011;40801;41.924;25.562;2024-03-29T04:46:12;22.63;;;12.25;;
54899;SDS011;40801;41.924;25.562;2024-03-29T04:48:39;18.88;;;10.48;;
54899;SDS011;40801;41.924;25.562;2024-03-29T04:51:06;21.63;;;11.18;;
54899;SDS011;40801;41.924;25.562;2024-03-29T04:53:32;22.50;;;10.43;;
54899;SDS011;40801;41.924;25.562;2024-03-29T04:55:57;24.70;;;8.57;;
54899;SDS011;40801;41.924;25.562;2024-03-29T04:58:26;23.77;;;9.43;;
54899;SDS011;40801;41.924;25.562;2024-03-29T05:00:53;16.67;;;7.68;;
54899;SDS011;40801;41.924;25.562;2024-03-29T05:03:19;21.33;;;9.15;;
54899;SDS011;40801;41.924;25.562;2024-03-29T05:05:46;19.65;;;9.02;;
54899;SDS011;40801;41.924;25.562;2024-03-29T05:08:12;16.88;;;8.82;;
54899;SDS011;40801;41.924;25.562;2024-03-29T05:10:39;19.67;;;9.18;;
54899;SDS011;40801;41.924;25.562;2024-03-29T05:13:04;15.18;;;9.13;;
54899;SDS011;40801;41.924;25.562;2024-03-29T05:15:30;14.80;;;8.27;;
54899;SDS011;40801;41.924;25.562;2024-03-29T05:17:56;21.55;;;10.38;;
54899;SDS011;40801;41.924;25.562;2024-03-29T05:20:21;24.30;;;14.07;;
54899;SDS011;40801;41.924;25.562;2024-03-29T05:22:46;20.95;;;11.07;;
54899;SDS011;40801;41.924;25.562;2024-03-29T05:25:12;22.67;;;11.05;;
54899;SDS011;40801;41.924;25.562;2024-03-29T05:27:37;19.33;;;10.45;;
54899;SDS011;40801;41.924;25.562;2024-03-29T05:30:03;28.15;;;11.73;;
54899;SDS011;40801;41.924;25.562;2024-03-29T05:32:29;23.27;;;12.23;;
54899;SDS011;40801;41.924;25.562;2024-03-29T05:34:55;23.20;;;12.00;;
54899;SDS011;40801;41.924;25.562;2024-03-29T05:37:20;25.30;;;11.50;;
54899;SDS011;40801;41.924;25.562;2024-03-29T05:39:47;16.05;;;10.40;;
54899;SDS011;40801;41.924;25.562;2024-03-29T05:42:12;22.00;;;10.32;;
54899;SDS011;40801;41.924;25.562;2024-03-29T05:44:38;23.40;;;9.85;;
54899;SDS011;40801;41.924;25.562;2024-03-29T05:47:03;16.10;;;10.10;;
54899;SDS011;40801;41.924;25.562;2024-03-29T05:49:31;25.10;;;10.45;;
54899;SDS011;40801;41.924;25.562;2024-03-29T05:51:58;20.08;;;10.88;;
54899;SDS011;40801;41.924;25.562;2024-03-29T05:54:23;20.27;;;11.32;;
54899;SDS011;40801;41.924;25.562;2024-03-29T05:56:49;22.50;;;10.68;;
54899;SDS011;40801;41.924;25.562;2024-03-29T05:59:15;22.10;;;11.80;;
54899;SDS011;40801;41.924;25.562;2024-03-29T06:01:40;22.05;;;11.25;;
54899;SDS011;40801;41.924;25.562;2024-03-29T06:04:06;25.60;;;12.35;;
54899;SDS011;40801;41.924;25.562;2024-03-29T06:06:39;20.02;;;11.10;;
54899;SDS011;40801;41.924;25.562;2024-03-29T06:09:05;18.92;;;10.27;;
54899;SDS011;40801;41.924;25.562;2024-03-29T06:11:30;19.58;;;10.13;;
54899;SDS011;40801;41.924;25.562;2024-03-29T06:13:56;22.98;;;9.40;;
54899;SDS011;40801;41.924;25.562;2024-03-29T06:16:24;17.08;;;8.20;;
54899;SDS011;40801;41.924;25.562;2024-03-29T06:19:09;14.48;;;6.18;;
54899;SDS011;40801;41.924;25.562;2024-03-29T06:21:34;10.93;;;6.50;;
54899;SDS011;40801;41.924;25.562;2024-03-29T06:24:11;9.75;;;5.78;;
54899;SDS011;40801;41.924;25.562;2024-03-29T06:26:41;20.77;;;14.02;;
54899;SDS011;40801;41.924;25.562;2024-03-29T06:29:07;31.48;;;24.55;;
54899;SDS011;40801;41.924;25.562;2024-03-29T06:31:35;15.40;;;5.68;;
54899;SDS011;40801;41.924;25.562;2024-03-29T06:34:01;11.75;;;7.95;;
54899;SDS011;40801;41.924;25.562;2024-03-29T06:36:26;19.33;;;15.93;;
54899;SDS011;40801;41.924;25.562;2024-03-29T06:38:53;18.83;;;15.20;;
54899;SDS011;40801;41.924;25.562;2024-03-29T06:41:19;11.40;;;5.82;;
54899;SDS011;40801;41.924;25.562;2024-03-29T06:43:44;8.05;;;4.47;;
54899;SDS011;40801;41.924;25.562;2024-03-29T06:46:13;9.18;;;4.68;;
54899;SDS011;40801;41.924;25.562;2024-03-29T06:48:39;11.98;;;4.90;;
54899;SDS011;40801;41.924;25.562;2024-03-29T06:51:04;9.60;;;4.70;;
54899;SDS011;40801;41.924;25.562;2024-03-29T06:53:30;9.77;;;4.97;;
54899;SDS011;40801;41.924;25.562;2024-03-29T06:55:55;11.27;;;5.18;;
54899;SDS011;40801;41.924;25.562;2024-03-29T06:58:24;7.68;;;3.58;;
54899;SDS011;40801;41.924;25.562;2024-03-29T07:00:50;10.30;;;3.43;;
54899;SDS011;40801;41.924;25.562;2024-03-29T07:03:16;9.45;;;3.80;;
54899;SDS011;40801;41.924;25.562;2024-03-29T07:05:45;10.70;;;4.18;;
54899;SDS011;40801;41.924;25.562;2024-03-29T07:08:11;12.40;;;3.90;;
54899;SDS011;40801;41.924;25.562;2024-03-29T07:10:36;15.05;;;5.20;;
54899;SDS011;40801;41.924;25.562;2024-03-29T07:13:02;12.93;;;6.43;;
54899;SDS011;40801;41.924;25.562;2024-03-29T07:15:27;12.15;;;4.38;;
54899;SDS011;40801;41.924;25.562;2024-03-29T07:17:52;9.95;;;4.60;;
54899;SDS011;40801;41.924;25.562;2024-03-29T07:20:18;8.35;;;4.55;;
54899;SDS011;40801;41.924;25.562;2024-03-29T07:22:44;7.60;;;3.42;;
54899;SDS011;40801;41.924;25.562;2024-03-29T07:25:10;7.63;;;4.03;;
54899;SDS011;40801;41.924;25.562;2024-03-29T07:27:36;10.23;;;5.50;;
54899;SDS011;40801;41.924;25.562;2024-03-29T07:30:02;13.90;;;7.78;;
54899;SDS011;40801;41.924;25.562;2024-03-29T07:32:33;10.73;;;7.07;;
54899;SDS011;40801;41.924;25.562;2024-03-29T07:34:59;7.75;;;3.78;;
54899;SDS011;40801;41.924;25.562;2024-03-29T07:37:25;6.47;;;2.55;;
54899;SDS011;40801;41.924;25.562;2024-03-29T07:39:50;8.80;;;2.55;;
54899;SDS011;40801;41.924;25.562;2024-03-29T07:42:16;5.93;;;2.55;;
54899;SDS011;40801;41.924;25.562;2024-03-29T07:44:41;4.70;;;2.50;;
54899;SDS011;40801;41.924;25.562;2024-03-29T07:47:07;5.20;;;2.58;;
54899;SDS011;40801;41.924;25.562;2024-03-29T07:49:32;6.05;;;2.55;;
54899;SDS011;40801;41.924;25.562;2024-03-29T07:51:58;6.30;;;2.55;;
54899;SDS011;40801;41.924;25.562;2024-03-29T07:54:24;6.15;;;2.28;;
54899;SDS011;40801;41.924;25.562;2024-03-29T07:56:49;4.35;;;2.70;;
54899;SDS011;40801;41.924;25.562;2024-03-29T07:59:15;2.60;;;2.13;;
54899;SDS011;40801;41.924;25.562;2024-03-29T08:01:44;5.70;;;2.60;;
54899;SDS011;40801;41.924;25.562;2024-03-29T08:04:09;4.63;;;2.58;;
54899;SDS011;40801;41.924;25.562;2024-03-29T08:06:35;3.83;;;2.50;;
54899;SDS011;40801;41.924;25.562;2024-03-29T08:09:00;4.65;;;1.80;;
54899;SDS011;40801;41.924;25.562;2024-03-29T08:11:26;2.88;;;2.05;;
54899;SDS011;40801;41.924;25.562;2024-03-29T08:13:51;1.73;;;1.23;;
54899;SDS011;40801;41.924;25.562;2024-03-29T08:16:17;3.78;;;1.95;;
54899;SDS011;40801;41.924;25.562;2024-03-29T08:18:42;3.17;;;1.95;;
54899;SDS011;40801;41.924;25.562;2024-03-29T08:21:11;3.20;;;2.08;;
54899;SDS011;40801;41.924;25.562;2024-03-29T08:23:40;2.75;;;1.00;;
54899;SDS011;40801;41.924;25.562;2024-03-29T08:26:06;3.42;;;1.90;;
54899;SDS011;40801;41.924;25.562;2024-03-29T08:28:32;1.63;;;1.45;;
54899;SDS011;40801;41.924;25.562;2024-03-29T08:30:58;1.92;;;1.20;;
54899;SDS011;40801;41.924;25.562;2024-03-29T08:33:24;3.08;;;2.25;;
54899;SDS011;40801;41.924;25.562;2024-03-29T08:35:50;3.08;;;1.88;;
54899;SDS011;40801;41.924;25.562;2024-03-29T08:38:15;13.57;;;10.35;;
54899;SDS011;40801;41.924;25.562;2024-03-29T08:40:41;19.02;;;17.08;;
54899;SDS011;40801;41.924;25.562;2024-03-29T08:43:08;5.00;;;3.67;;
54899;SDS011;40801;41.924;25.562;2024-03-29T08:45:34;7.75;;;4.55;;
54899;SDS011;40801;41.924;25.562;2024-03-29T08:48:05;3.15;;;1.40;;
54899;SDS011;40801;41.924;25.562;2024-03-29T08:53:00;2.88;;;1.40;;
54899;SDS011;40801;41.924;25.562;2024-03-29T08:55:26;3.25;;;2.10;;
54899;SDS011;40801;41.924;25.562;2024-03-29T08:57:51;3.85;;;2.40;;
54899;SDS011;40801;41.924;25.562;2024-03-29T09:00:17;6.60;;;3.28;;
54899;SDS011;40801;41.924;25.562;2024-03-29T09:02:42;3.03;;;1.60;;
54899;SDS011;40801;41.924;25.562;2024-03-29T09:05:08;4.68;;;1.45;;
54899;SDS011;40801;41.924;25.562;2024-03-29T09:07:33;3.55;;;2.92;;
54899;SDS011;40801;41.924;25.562;2024-03-29T09:09:59;4.68;;;2.25;;
54899;SDS011;40801;41.924;25.562;2024-03-29T09:12:24;5.50;;;3.10;;
54899;SDS011;40801;41.924;25.562;2024-03-29T09:14:50;3.28;;;2.45;;
54899;SDS011;40801;41.924;25.562;2024-03-29T09:17:16;3.22;;;1.98;;
54899;SDS011;40801;41.924;25.562;2024-03-29T09:19:41;3.65;;;2.42;;
54899;SDS011;40801;41.924;25.562;2024-03-29T09:22:07;2.45;;;1.55;;
54899;SDS011;40801;41.924;25.562;2024-03-29T09:24:32;3.92;;;2.17;;
54899;SDS011;40801;41.924;25.562;2024-03-29T09:26:59;1.98;;;1.50;;
54899;SDS011;40801;41.924;25.562;2024-03-29T09:29:25;4.20;;;2.20;;
54899;SDS011;40801;41.924;25.562;2024-03-29T09:31:50;4.03;;;2.38;;
54899;SDS011;40801;41.924;25.562;2024-03-29T09:34:16;5.22;;;4.03;;
54899;SDS011;40801;41.924;25.562;2024-03-29T09:36:41;1.67;;;1.30;;
54899;SDS011;40801;41.924;25.562;2024-03-29T09:39:06;5.55;;;3.88;;
54899;SDS011;40801;41.924;25.562;2024-03-29T09:41:33;7.82;;;7.00;;
54899;SDS011;40801;41.924;25.562;2024-03-29T09:44:02;8.75;;;7.63;;
54899;SDS011;40801;41.924;25.562;2024-03-29T09:46:31;2.28;;;1.90;;
54899;SDS011;40801;41.924;25.562;2024-03-29T09:48:58;1.95;;;1.02;;
54899;SDS011;40801;41.924;25.562;2024-03-29T09:51:24;15.48;;;12.18;;
54899;SDS011;40801;41.924;25.562;2024-03-29T09:53:51;2.38;;;1.42;;
54899;SDS011;40801;41.924;25.562;2024-03-29T09:56:16;1.95;;;1.10;;
54899;SDS011;40801;41.924;25.562;2024-03-29T09:58:42;2.65;;;1.42;;
54899;SDS011;40801;41.924;25.562;2024-03-29T10:01:07;2.88;;;1.10;;
54899;SDS011;40801;41.924;25.562;2024-03-29T10:03:41;1.42;;;1.17;;
54899;SDS011;40801;41.924;25.562;2024-03-29T10:06:09;2.60;;;0.98;;
54899;SDS011;40801;41.924;25.562;2024-03-29T10:08:37;3.45;;;1.25;;
54899;SDS011;40801;41.924;25.562;2024-03-29T10:11:02;1.70;;;1.10;;
54899;SDS011;40801;41.924;25.562;2024-03-29T10:13:28;1.58;;;0.90;;
54899;SDS011;40801;41.924;25.562;2024-03-29T10:15:53;1.88;;;1.77;;
54899;SDS011;40801;41.924;25.562;2024-03-29T10:18:24;2.38;;;1.00;;
54899;SDS011;40801;41.924;25.562;2024-03-29T10:21:04;3.05;;;1.40;;
54899;SDS011;40801;41.924;25.562;2024-03-29T10:23:32;3.13;;;2.83;;
54899;SDS011;40801;41.924;25.562;2024-03-29T10:25:58;3.92;;;1.73;;
54899;SDS011;40801;41.924;25.562;2024-03-29T10:28:27;1.42;;;1.05;;
54899;SDS011;40801;41.924;25.562;2024-03-29T10:30:55;3.70;;;1.20;;
54899;SDS011;40801;41.924;25.562;2024-03-29T10:33:20;4.78;;;1.60;;
54899;SDS011;40801;41.924;25.562;2024-03-29T10:35:46;1.98;;;1.17;;
54899;SDS011;40801;41.924;25.562;2024-03-29T10:38:11;2.72;;;1.42;;
54899;SDS011;40801;41.924;25.562;2024-03-29T10:40:41;2.80;;;1.25;;
54899;SDS011;40801;41.924;25.562;2024-03-29T10:43:10;2.85;;;1.70;;
54899;SDS011;40801;41.924;25.562;2024-03-29T10:45:38;4.22;;;1.00;;
54899;SDS011;40801;41.924;25.562;2024-03-29T10:48:05;1.25;;;0.98;;
54899;SDS011;40801;41.924;25.562;2024-03-29T10:50:35;3.58;;;1.27;;
54899;SDS011;40801;41.924;25.562;2024-03-29T10:53:01;1.88;;;0.98;;
54899;SDS011;40801;41.924;25.562;2024-03-29T10:55:30;1.70;;;1.13;;
54899;SDS011;40801;41.924;25.562;2024-03-29T10:57:58;1.42;;;0.73;;
54899;SDS011;40801;41.924;25.562;2024-03-29T11:00:25;1.83;;;0.93;;
54899;SDS011;40801;41.924;25.562;2024-03-29T11:05:41;1.55;;;0.70;;
54899;SDS011;40801;41.924;25.562;2024-03-29T11:08:11;1.10;;;0.82;;
54899;SDS011;40801;41.924;25.562;2024-03-29T11:10:42;2.25;;;1.02;;
54899;SDS011;40801;41.924;25.562;2024-03-29T11:15:49;3.35;;;1.15;;
54899;SDS011;40801;41.924;25.562;2024-03-29T11:18:15;3.25;;;1.13;;
54899;SDS011;40801;41.924;25.562;2024-03-29T11:20:44;2.08;;;0.93;;
54899;SDS011;40801;41.924;25.562;2024-03-29T11:23:16;3.75;;;1.10;;
54899;SDS011;40801;41.924;25.562;2024-03-29T11:25:43;4.13;;;1.05;;
54899;SDS011;40801;41.924;25.562;2024-03-29T11:28:11;1.33;;;0.90;;
54899;SDS011;40801;41.924;25.562;2024-03-29T11:30:46;3.35;;;0.95;;
54899;SDS011;40801;41.924;25.562;2024-03-29T11:35:57;1.48;;;0.85;;
54899;SDS011;40801;41.924;25.562;2024-03-29T11:38:33;2.85;;;0.80;;
54899;SDS011;40801;41.924;25.562;2024-03-29T11:41:06;2.15;;;0.93;;
54899;SDS011;40801;41.924;25.562;2024-03-29T11:43:35;4.97;;;4.22;;
54899;SDS011;40801;41.924;25.562;2024-03-29T11:46:02;2.60;;;1.10;;
54899;SDS011;40801;41.924;25.562;2024-03-29T11:48:30;1.17;;;0.85;;
54899;SDS011;40801;41.924;25.562;2024-03-29T11:50:56;2.40;;;0.90;;
54899;SDS011;40801;41.924;25.562;2024-03-29T11:53:22;1.60;;;0.98;;
54899;SDS011;40801;41.924;25.562;2024-03-29T11:55:48;3.65;;;1.33;;
54899;SDS011;40801;41.924;25.562;2024-03-29T11:58:22;1.92;;;0.82;;
54899;SDS011;40801;41.924;25.562;2024-03-29T12:00:48;2.72;;;1.13;;
54899;SDS011;40801;41.924;25.562;2024-03-29T12:03:15;3.27;;;1.57;;
54899;SDS011;40801;41.924;25.562;2024-03-29T12:05:42;2.67;;;0.90;;
54899;SDS011;40801;41.924;25.562;2024-03-29T12:08:08;2.30;;;1.00;;
54899;SDS011;40801;41.924;25.562;2024-03-29T12:10:35;3.28;;;1.00;;
54899;SDS011;40801;41.924;25.562;2024-03-29T12:13:02;1.63;;;0.90;;
54899;SDS011;40801;41.924;25.562;2024-03-29T12:15:29;2.90;;;1.83;;
54899;SDS011;40801;41.924;25.562;2024-03-29T12:17:55;1.98;;;1.02;;
54899;SDS011;40801;41.924;25.562;2024-03-29T12:20:25;1.55;;;1.05;;
54899;SDS011;40801;41.924;25.562;2024-03-29T12:22:51;2.35;;;0.82;;
54899;SDS011;40801;41.924;25.562;2024-03-29T12:25:16;3.72;;;2.75;;
54899;SDS011;40801;41.924;25.562;2024-03-29T12:30:11;1.90;;;0.90;;
54899;SDS011;40801;41.924;25.562;2024-03-29T12:32:38;2.80;;;1.10;;
54899;SDS011;40801;41.924;25.562;2024-03-29T12:35:11;2.67;;;0.88;;
54899;SDS011;40801;41.924;25.562;2024-03-29T12:37:37;1.73;;;1.00;;
54899;SDS011;40801;41.924;25.562;2024-03-29T12:40:05;3.05;;;0.80;;
54899;SDS011;40801;41.924;25.562;2024-03-29T12:42:40;2.25;;;0.90;;
54899;SDS011;40801;41.924;25.562;2024-03-29T12:45:06;2.47;;;1.63;;
54899;SDS011;40801;41.924;25.562;2024-03-29T12:47:35;4.65;;;1.90;;
54899;SDS011;40801;41.924;25.562;2024-03-29T12:50:01;1.20;;;0.70;;
54899;SDS011;40801;41.924;25.562;2024-03-29T12:52:35;5.33;;;2.67;;
54899;SDS011;40801;41.924;25.562;2024-03-29T12:55:02;5.40;;;4.20;;
54899;SDS011;40801;41.924;25.562;2024-03-29T12:57:27;2.25;;;1.85;;
54899;SDS011;40801;41.924;25.562;2024-03-29T12:59:53;1.77;;;0.90;;
54899;SDS011;40801;41.924;25.562;2024-03-29T13:02:18;1.13;;;0.63;;
54899;SDS011;40801;41.924;25.562;2024-03-29T13:04:44;4.45;;;1.00;;
54899;SDS011;40801;41.924;25.562;2024-03-29T13:07:10;2.30;;;1.45;;
54899;SDS011;40801;41.924;25.562;2024-03-29T13:09:39;1.77;;;0.93;;
54899;SDS011;40801;41.924;25.562;2024-03-29T13:12:04;1.95;;;1.08;;
54899;SDS011;40801;41.924;25.562;2024-03-29T13:14:31;1.33;;;1.15;;
54899;SDS011;40801;41.924;25.562;2024-03-29T13:16:56;2.13;;;0.98;;
54899;SDS011;40801;41.924;25.562;2024-03-29T13:19:22;2.13;;;1.10;;
54899;SDS011;40801;41.924;25.562;2024-03-29T13:21:47;4.00;;;1.17;;
54899;SDS011;40801;41.924;25.562;2024-03-29T13:24:12;5.47;;;2.10;;
54899;SDS011;40801;41.924;25.562;2024-03-29T13:26:38;4.05;;;1.42;;
54899;SDS011;40801;41.924;25.562;2024-03-29T13:29:03;2.40;;;1.10;;
54899;SDS011;40801;41.924;25.562;2024-03-29T13:31:29;1.85;;;0.98;;
54899;SDS011;40801;41.924;25.562;2024-03-29T13:33:55;2.65;;;1.10;;
54899;SDS011;40801;41.924;25.562;2024-03-29T13:36:36;1.70;;;1.58;;
54899;SDS011;40801;41.924;25.562;2024-03-29T13:39:03;2.78;;;2.10;;
54899;SDS011;40801;41.924;25.562;2024-03-29T13:41:28;1.10;;;0.90;;
54899;SDS011;40801;41.924;25.562;2024-03-29T13:43:53;2.42;;;1.10;;
54899;SDS011;40801;41.924;25.562;2024-03-29T13:46:19;2.72;;;1.50;;
54899;SDS011;40801;41.924;25.562;2024-03-29T13:48:44;3.67;;;1.50;;
54899;SDS011;40801;41.924;25.562;2024-03-29T13:51:11;1.92;;;0.95;;
54899;SDS011;40801;41.924;25.562;2024-03-29T13:53:37;1.55;;;1.35;;
54899;SDS011;40801;41.924;25.562;2024-03-29T13:56:03;2.63;;;1.13;;
54899;SDS011;40801;41.924;25.562;2024-03-29T13:58:29;1.92;;;0.73;;
54899;SDS011;40801;41.924;25.562;2024-03-29T14:00:55;1.30;;;0.85;;
54899;SDS011;40801;41.924;25.562;2024-03-29T14:03:25;2.95;;;2.30;;
54899;SDS011;40801;41.924;25.562;2024-03-29T14:05:50;2.03;;;1.33;;
54899;SDS011;40801;41.924;25.562;2024-03-29T14:08:16;1.73;;;1.02;;
54899;SDS011;40801;41.924;25.562;2024-03-29T14:10:41;2.05;;;1.20;;
54899;SDS011;40801;41.924;25.562;2024-03-29T14:13:07;3.53;;;2.67;;
54899;SDS011;40801;41.924;25.562;2024-03-29T14:15:34;14.35;;;12.07;;
54899;SDS011;40801;41.924;25.562;2024-03-29T14:18:00;8.85;;;7.88;;
54899;SDS011;40801;41.924;25.562;2024-03-29T14:20:25;2.47;;;1.20;;
54899;SDS011;40801;41.924;25.562;2024-03-29T14:22:50;2.65;;;1.25;;
54899;SDS011;40801;41.924;25.562;2024-03-29T14:25:19;2.88;;;1.27;;
54899;SDS011;40801;41.924;25.562;2024-03-29T14:27:45;3.55;;;1.25;;
54899;SDS011;40801;41.924;25.562;2024-03-29T14:30:19;2.28;;;1.20;;
54899;SDS011;40801;41.924;25.562;2024-03-29T14:32:46;2.45;;;1.35;;
54899;SDS011;40801;41.924;25.562;2024-03-29T14:35:15;2.15;;;1.23;;
54899;SDS011;40801;41.924;25.562;2024-03-29T14:37:42;3.35;;;1.75;;